Time;durP1;ratioP1;P1;durP2;ratioP2;P2;SDS_P1;SDS_P2;PMS_P1;PMS_P2;Temp;Humidity;BMP_temperature;BMP_pressure;BME280_temperature;BME280_humidity;BME280_pressure;Samples;Min_cycle;Max_cycle;Signal;HPM_P1;HPM_P2
2021/11/26 00:00:51;;;;;;;7.95;2.88;;;;;;;;;;5030385;28;20021;-79
2021/11/26 00:03:16;;;;;;;5.57;2.10;;;;;;;;;;5032022;28;20057;-79
2021/11/26 00:05:42;;;;;;;6.20;2.10;;;;;;;;;;5049566;28;20380;-78
2021/11/26 00:08:07;;;;;;;6.65;1.92;;;;;;;;;;5017526;28;20021;-80
2021/11/26 00:10:32;;;;;;;5.45;2.00;;;;;;;;;;5012812;28;20076;-78
2021/11/26 00:13:01;;;;;;;7.53;1.92;;;;;;;;;;5016399;28;20081;-80
2021/11/26 00:15:37;;;;;;;4.90;2.00;;;;;;;;;;5025867;28;20029;-78
2021/11/26 00:18:09;;;;;;;7.43;1.80;;;;;;;;;;5010476;28;20424;-77
2021/11/26 00:20:36;;;;;;;6.00;1.70;;;;;;;;;;5032028;28;20021;-80
2021/11/26 00:23:01;;;;;;;8.73;1.90;;;;;;;;;;5032209;28;20021;-77
2021/11/26 00:25:27;;;;;;;3.92;1.52;;;;;;;;;;5034209;28;20029;-79
2021/11/26 00:27:52;;;;;;;8.20;2.00;;;;;;;;;;5020209;28;20025;-79
2021/11/26 00:30:18;;;;;;;4.97;1.65;;;;;;;;;;5016795;28;20041;-79
2021/11/26 00:32:44;;;;;;;4.90;1.70;;;;;;;;;;5019143;28;20052;-78
2021/11/26 00:35:09;;;;;;;5.68;1.65;;;;;;;;;;5023212;28;20052;-76
2021/11/26 00:37:35;;;;;;;6.97;1.67;;;;;;;;;;5017744;28;20035;-79
2021/11/26 00:40:00;;;;;;;3.42;1.45;;;;;;;;;;5010597;28;20037;-79
2021/11/26 00:42:25;;;;;;;7.15;1.50;;;;;;;;;;5010675;28;20033;-76
2021/11/26 00:44:51;;;;;;;6.32;1.40;;;;;;;;;;5016512;28;20587;-77
2021/11/26 00:47:16;;;;;;;4.25;1.52;;;;;;;;;;5033896;28;20036;-79
2021/11/26 00:49:42;;;;;;;5.07;1.80;;;;;;;;;;5014399;28;20446;-78
2021/11/26 00:52:07;;;;;;;5.60;2.00;;;;;;;;;;5009364;28;20974;-80
2021/11/26 00:54:33;;;;;;;6.30;1.90;;;;;;;;;;5013126;28;20033;-78
2021/11/26 00:56:58;;;;;;;6.78;2.40;;;;;;;;;;5012008;28;20418;-79
2021/11/26 00:59:23;;;;;;;4.93;2.03;;;;;;;;;;5028590;28;20075;-76
2021/11/26 01:01:49;;;;;;;5.55;2.30;;;;;;;;;;5027378;28;20384;-79
2021/11/26 01:04:14;;;;;;;5.05;2.70;;;;;;;;;;5014995;28;22085;-78
2021/11/26 01:06:39;;;;;;;4.78;2.67;;;;;;;;;;5016415;28;20044;-76
2021/11/26 01:09:05;;;;;;;6.18;2.80;;;;;;;;;;5009888;28;20391;-78
2021/11/26 01:11:30;;;;;;;7.65;2.90;;;;;;;;;;5011083;28;20552;-79
2021/11/26 01:13:56;;;;;;;5.40;2.38;;;;;;;;;;5011672;28;20397;-80
2021/11/26 01:16:22;;;;;;;5.47;2.67;;;;;;;;;;5025940;28;20481;-79
2021/11/26 01:18:47;;;;;;;6.35;2.88;;;;;;;;;;5006357;28;20056;-78
2021/11/26 01:21:13;;;;;;;5.60;2.58;;;;;;;;;;5009721;28;20085;-76
2021/11/26 01:23:40;;;;;;;4.68;2.35;;;;;;;;;;5008902;28;20524;-78
2021/11/26 01:26:05;;;;;;;6.93;2.30;;;;;;;;;;5011396;28;20033;-79
2021/11/26 01:28:30;;;;;;;7.10;2.47;;;;;;;;;;5004027;28;20030;-79
2021/11/26 01:30:56;;;;;;;5.32;2.20;;;;;;;;;;5040650;28;20022;-78
2021/11/26 01:33:21;;;;;;;5.60;2.22;;;;;;;;;;5006546;28;20033;-79
2021/11/26 01:35:51;;;;;;;7.03;2.28;;;;;;;;;;5010277;28;20029;-76
2021/11/26 01:38:17;;;;;;;5.97;2.00;;;;;;;;;;5009608;28;20025;-79
2021/11/26 01:40:44;;;;;;;4.45;1.95;;;;;;;;;;5011453;28;20477;-79
2021/11/26 01:43:12;;;;;;;5.03;2.20;;;;;;;;;;5008776;28;20021;-76
2021/11/26 01:45:54;;;;;;;5.88;2.00;;;;;;;;;;5014966;28;20025;-80
2021/11/26 01:48:21;;;;;;;5.82;2.08;;;;;;;;;;5010211;28;20497;-79
2021/11/26 01:50:49;;;;;;;5.35;2.17;;;;;;;;;;5020873;28;20040;-79
2021/11/26 01:53:14;;;;;;;6.40;2.15;;;;;;;;;;5005700;28;20033;-79
2021/11/26 01:55:41;;;;;;;7.55;2.30;;;;;;;;;;5009918;28;20029;-78
2021/11/26 01:58:10;;;;;;;6.78;2.65;;;;;;;;;;5033749;28;20053;-78
2021/11/26 02:00:37;;;;;;;5.63;2.08;;;;;;;;;;5007136;28;20136;-79
2021/11/26 02:03:02;;;;;;;5.97;2.13;;;;;;;;;;5001411;28;20470;-78
2021/11/26 02:05:27;;;;;;;3.58;1.70;;;;;;;;;;5008423;28;20037;-76
2021/11/26 02:07:53;;;;;;;4.65;1.60;;;;;;;;;;5005292;28;20018;-78
2021/11/26 02:10:18;;;;;;;5.10;1.75;;;;;;;;;;5026601;28;20050;-78
2021/11/26 02:12:44;;;;;;;3.22;1.38;;;;;;;;;;5045386;28;20469;-80
2021/11/26 02:15:20;;;;;;;3.35;1.33;;;;;;;;;;5015165;28;20552;-79
2021/11/26 02:17:45;;;;;;;3.80;1.30;;;;;;;;;;5027999;28;20061;-79
2021/11/26 02:20:20;;;;;;;4.32;1.35;;;;;;;;;;5025510;28;20064;-80
2021/11/26 02:22:46;;;;;;;4.20;1.48;;;;;;;;;;5028555;28;20100;-80
2021/11/26 02:25:12;;;;;;;4.45;1.25;;;;;;;;;;5044130;28;20048;-78
2021/11/26 02:27:38;;;;;;;1.75;1.10;;;;;;;;;;5023792;28;20029;-79
2021/11/26 02:30:27;;;;;;;3.17;1.23;;;;;;;;;;5008002;28;20032;-76
2021/11/26 02:32:55;;;;;;;6.03;1.23;;;;;;;;;;5031367;28;20036;-80
2021/11/26 02:35:21;;;;;;;4.13;1.35;;;;;;;;;;5013882;28;20048;-76
2021/11/26 02:37:46;;;;;;;1.92;0.93;;;;;;;;;;5015473;28;20079;-78
2021/11/26 02:40:14;;;;;;;2.53;1.10;;;;;;;;;;5027131;28;20033;-79
2021/11/26 02:42:40;;;;;;;5.32;1.27;;;;;;;;;;5007537;28;20677;-80
2021/11/26 02:45:10;;;;;;;3.08;1.10;;;;;;;;;;5012212;28;20029;-78
2021/11/26 02:47:40;;;;;;;3.95;1.35;;;;;;;;;;5033767;28;20028;-77
2021/11/26 02:50:07;;;;;;;3.33;1.40;;;;;;;;;;5015480;28;20428;-80
2021/11/26 02:52:34;;;;;;;3.50;1.02;;;;;;;;;;5014839;28;20401;-80
2021/11/26 02:54:59;;;;;;;4.03;1.17;;;;;;;;;;5018014;28;20075;-79
2021/11/26 02:57:25;;;;;;;1.98;1.05;;;;;;;;;;5009438;28;20022;-80
2021/11/26 02:59:50;;;;;;;2.35;0.90;;;;;;;;;;5026581;28;20025;-78
2021/11/26 03:02:15;;;;;;;4.90;1.15;;;;;;;;;;5023622;28;20034;-78
2021/11/26 03:04:41;;;;;;;2.17;0.85;;;;;;;;;;5027829;28;20396;-77
2021/11/26 03:07:08;;;;;;;2.22;0.80;;;;;;;;;;5025940;28;20031;-79
2021/11/26 03:09:35;;;;;;;4.18;1.33;;;;;;;;;;5026799;28;20053;-79
2021/11/26 03:12:00;;;;;;;2.55;1.00;;;;;;;;;;5044879;28;20057;-80
2021/11/26 03:14:25;;;;;;;2.03;1.02;;;;;;;;;;5016120;28;20399;-78
2021/11/26 03:16:51;;;;;;;2.58;0.93;;;;;;;;;;5025854;28;20041;-80
2021/11/26 03:19:17;;;;;;;5.65;1.17;;;;;;;;;;5039256;28;20029;-80
2021/11/26 03:21:43;;;;;;;1.75;0.90;;;;;;;;;;5016383;28;20167;-77
2021/11/26 03:24:08;;;;;;;2.45;0.70;;;;;;;;;;5020783;28;20120;-79
2021/11/26 03:26:34;;;;;;;2.30;0.73;;;;;;;;;;5037822;28;20029;-80
2021/11/26 03:28:59;;;;;;;2.92;0.80;;;;;;;;;;5024444;28;20033;-80
2021/11/26 03:31:24;;;;;;;3.13;1.50;;;;;;;;;;5049610;28;20420;-80
2021/11/26 03:33:50;;;;;;;2.70;0.90;;;;;;;;;;5020750;28;20401;-80
2021/11/26 03:36:15;;;;;;;4.03;0.82;;;;;;;;;;5033130;28;20025;-76
2021/11/26 03:38:41;;;;;;;2.22;0.70;;;;;;;;;;5016303;28;20021;-80
2021/11/26 03:41:06;;;;;;;3.28;0.80;;;;;;;;;;5020028;28;20046;-79
2021/11/26 03:43:32;;;;;;;3.13;0.95;;;;;;;;;;5035024;28;20030;-76
2021/11/26 03:45:57;;;;;;;3.03;0.70;;;;;;;;;;5034477;28;20033;-79
2021/11/26 03:48:22;;;;;;;1.40;0.60;;;;;;;;;;5016592;28;20108;-79
2021/11/26 03:50:48;;;;;;;3.38;0.75;;;;;;;;;;5019392;28;20059;-80
2021/11/26 03:53:13;;;;;;;1.92;0.63;;;;;;;;;;5033754;28;20025;-80
2021/11/26 03:55:38;;;;;;;3.13;0.82;;;;;;;;;;5035164;28;20065;-80
2021/11/26 03:58:04;;;;;;;1.63;0.60;;;;;;;;;;5017176;28;20033;-76
2021/11/26 04:00:29;;;;;;;4.95;0.80;;;;;;;;;;5029625;28;20060;-76
2021/11/26 04:02:55;;;;;;;2.03;0.50;;;;;;;;;;5036569;28;20029;-80
2021/11/26 04:05:21;;;;;;;2.50;0.60;;;;;;;;;;5029150;28;20049;-80
2021/11/26 04:07:47;;;;;;;2.03;0.63;;;;;;;;;;5021732;28;20641;-79
2021/11/26 04:10:14;;;;;;;3.03;0.55;;;;;;;;;;5035186;28;20060;-77
2021/11/26 04:12:40;;;;;;;1.83;0.50;;;;;;;;;;5021072;28;20416;-77
2021/11/26 04:15:06;;;;;;;4.10;0.50;;;;;;;;;;5020803;28;21249;-80
2021/11/26 04:17:33;;;;;;;2.28;0.52;;;;;;;;;;5032972;28;20689;-79
2021/11/26 04:19:59;;;;;;;1.98;0.47;;;;;;;;;;5032049;28;20455;-77
2021/11/26 04:22:24;;;;;;;2.70;0.50;;;;;;;;;;5033796;28;20029;-80
2021/11/26 04:24:49;;;;;;;2.28;0.43;;;;;;;;;;5035426;28;20116;-78
2021/11/26 04:27:15;;;;;;;1.80;0.60;;;;;;;;;;5020665;28;20108;-76
2021/11/26 04:29:40;;;;;;;2.35;0.40;;;;;;;;;;5019804;28;20033;-79
2021/11/26 04:32:07;;;;;;;2.28;0.50;;;;;;;;;;5015316;28;20067;-79
2021/11/26 04:34:32;;;;;;;3.17;0.60;;;;;;;;;;5028269;28;22178;-75
2021/11/26 04:36:57;;;;;;;1.00;0.57;;;;;;;;;;5029494;28;20108;-78
2021/11/26 04:39:23;;;;;;;0.68;0.43;;;;;;;;;;5016562;28;20044;-79
2021/11/26 04:41:48;;;;;;;2.13;0.75;;;;;;;;;;5032116;28;20036;-78
2021/11/26 04:44:13;;;;;;;2.35;0.65;;;;;;;;;;5030522;28;20048;-78
2021/11/26 04:46:39;;;;;;;2.28;0.95;;;;;;;;;;5019940;28;20017;-80
2021/11/26 04:49:05;;;;;;;4.63;0.90;;;;;;;;;;5017950;28;20025;-80
2021/11/26 04:51:32;;;;;;;4.25;0.93;;;;;;;;;;5017211;28;20040;-80
2021/11/26 04:53:57;;;;;;;3.30;0.90;;;;;;;;;;5050698;28;20033;-76
2021/11/26 04:56:22;;;;;;;2.35;0.85;;;;;;;;;;5032038;28;20388;-79
2021/11/26 04:58:48;;;;;;;5.07;1.05;;;;;;;;;;5016040;28;20038;-80
2021/11/26 05:01:13;;;;;;;2.10;0.93;;;;;;;;;;5015776;28;20047;-77
2021/11/26 05:03:38;;;;;;;4.55;1.73;;;;;;;;;;5031087;28;20481;-76
2021/11/26 05:06:04;;;;;;;5.03;1.35;;;;;;;;;;5008287;28;20021;-79
2021/11/26 05:08:29;;;;;;;3.00;1.58;;;;;;;;;;5030656;28;20052;-80
2021/11/26 05:10:55;;;;;;;4.15;1.70;;;;;;;;;;5027530;28;20036;-79
2021/11/26 05:13:28;;;;;;;5.30;1.90;;;;;;;;;;5019882;28;20045;-75
2021/11/26 05:15:54;;;;;;;2.58;1.45;;;;;;;;;;5028738;28;20025;-76
2021/11/26 05:18:26;;;;;;;3.72;1.60;;;;;;;;;;5014340;28;20480;-80
2021/11/26 05:20:53;;;;;;;4.10;1.52;;;;;;;;;;5016854;28;20029;-79
2021/11/26 05:23:20;;;;;;;3.88;1.67;;;;;;;;;;5023947;28;20025;-76
2021/11/26 05:25:45;;;;;;;3.92;1.60;;;;;;;;;;5025583;28;20030;-78
2021/11/26 05:28:12;;;;;;;4.72;1.75;;;;;;;;;;5030771;28;20500;-79
2021/11/26 05:30:37;;;;;;;6.47;1.80;;;;;;;;;;5032367;28;20037;-79
2021/11/26 05:33:03;;;;;;;6.85;1.88;;;;;;;;;;5017372;28;20075;-80
2021/11/26 05:35:28;;;;;;;4.57;1.63;;;;;;;;;;5009443;28;20030;-79
2021/11/26 05:37:54;;;;;;;4.70;1.75;;;;;;;;;;5013403;28;20030;-80
2021/11/26 05:40:19;;;;;;;5.85;1.88;;;;;;;;;;5041453;28;20038;-80
2021/11/26 05:42:46;;;;;;;3.85;1.58;;;;;;;;;;5014910;28;20394;-78
2021/11/26 05:45:13;;;;;;;6.82;1.73;;;;;;;;;;5027921;28;20064;-79
2021/11/26 05:47:39;;;;;;;4.28;1.50;;;;;;;;;;5023682;28;20022;-79
2021/11/26 05:50:06;;;;;;;8.27;1.80;;;;;;;;;;5029043;28;20440;-77
2021/11/26 05:52:33;;;;;;;5.43;1.70;;;;;;;;;;5045479;28;20088;-79
2021/11/26 05:54:58;;;;;;;5.60;1.73;;;;;;;;;;5016592;28;20029;-79
2021/11/26 05:57:23;;;;;;;4.82;1.65;;;;;;;;;;5043425;28;20034;-80
2021/11/26 05:59:49;;;;;;;6.18;1.85;;;;;;;;;;5022355;28;20037;-79
2021/11/26 06:02:14;;;;;;;6.32;1.63;;;;;;;;;;5006252;28;20030;-79
2021/11/26 06:04:39;;;;;;;6.13;1.70;;;;;;;;;;5011099;28;20068;-79
2021/11/26 06:07:05;;;;;;;3.92;1.58;;;;;;;;;;5021488;28;20095;-78
2021/11/26 06:09:30;;;;;;;5.75;1.75;;;;;;;;;;5044482;28;20037;-79
2021/11/26 06:11:55;;;;;;;6.88;1.90;;;;;;;;;;5021473;28;20396;-79
2021/11/26 06:14:21;;;;;;;7.47;2.10;;;;;;;;;;5011717;28;20025;-77
2021/11/26 06:16:46;;;;;;;6.57;2.28;;;;;;;;;;5009701;28;20132;-79
2021/11/26 06:19:11;;;;;;;7.03;2.15;;;;;;;;;;5042898;28;20094;-80
2021/11/26 06:21:37;;;;;;;4.82;1.80;;;;;;;;;;5014707;28;20025;-75
2021/11/26 06:24:02;;;;;;;5.72;1.92;;;;;;;;;;5008283;28;20081;-80
2021/11/26 06:26:29;;;;;;;7.93;2.22;;;;;;;;;;5024778;28;20540;-80
2021/11/26 06:28:54;;;;;;;7.90;2.13;;;;;;;;;;5011253;28;20037;-80
2021/11/26 06:31:20;;;;;;;7.28;2.20;;;;;;;;;;5038327;28;20026;-80
2021/11/26 06:33:45;;;;;;;6.35;2.50;;;;;;;;;;5027584;28;20033;-80
2021/11/26 06:36:10;;;;;;;6.97;2.35;;;;;;;;;;5020387;28;20056;-79
2021/11/26 06:38:36;;;;;;;8.20;2.50;;;;;;;;;;5025868;28;20104;-79
2021/11/26 06:41:01;;;;;;;6.03;2.72;;;;;;;;;;5025836;28;20036;-80
2021/11/26 06:43:27;;;;;;;7.38;2.90;;;;;;;;;;5010778;28;20047;-80
2021/11/26 06:45:52;;;;;;;7.13;3.47;;;;;;;;;;5009939;28;20029;-77
2021/11/26 06:48:18;;;;;;;8.82;3.63;;;;;;;;;;5027242;28;20037;-76
2021/11/26 06:50:43;;;;;;;10.18;4.10;;;;;;;;;;5011363;28;20038;-79
2021/11/26 06:53:09;;;;;;;8.75;3.80;;;;;;;;;;5011939;28;20037;-77
2021/11/26 06:55:34;;;;;;;13.77;4.35;;;;;;;;;;5009957;28;20124;-76
2021/11/26 06:58:00;;;;;;;10.68;4.10;;;;;;;;;;5012576;28;20033;-79
2021/11/26 07:00:26;;;;;;;9.93;4.35;;;;;;;;;;5007312;28;20079;-76
2021/11/26 07:02:51;;;;;;;13.27;4.90;;;;;;;;;;5015513;28;20104;-80
2021/11/26 07:05:17;;;;;;;9.55;4.18;;;;;;;;;;5023885;28;20026;-76
2021/11/26 07:07:42;;;;;;;11.85;3.97;;;;;;;;;;5011311;28;20370;-80
2021/11/26 07:10:10;;;;;;;9.93;3.78;;;;;;;;;;5028641;28;20045;-79
2021/11/26 07:12:36;;;;;;;13.65;4.82;;;;;;;;;;5011502;28;20033;-79
2021/11/26 07:15:04;;;;;;;11.27;4.60;;;;;;;;;;5027087;28;20116;-79
2021/11/26 07:17:31;;;;;;;11.02;4.05;;;;;;;;;;5011065;28;20037;-79
2021/11/26 07:19:56;;;;;;;11.60;4.22;;;;;;;;;;5023411;28;20113;-78
2021/11/26 07:22:22;;;;;;;14.27;4.57;;;;;;;;;;5009768;28;20451;-79
2021/11/26 07:24:47;;;;;;;12.07;4.68;;;;;;;;;;5028609;28;20466;-79
2021/11/26 07:27:13;;;;;;;12.73;4.95;;;;;;;;;;5017125;28;20031;-79
2021/11/26 07:29:39;;;;;;;8.35;3.90;;;;;;;;;;5017745;28;20048;-79
2021/11/26 07:32:05;;;;;;;11.73;4.80;;;;;;;;;;5019896;28;20033;-76
2021/11/26 07:34:30;;;;;;;12.68;4.57;;;;;;;;;;5017645;28;20029;-76
2021/11/26 07:36:56;;;;;;;11.65;4.13;;;;;;;;;;5014127;28;20473;-79
2021/11/26 07:39:22;;;;;;;11.90;4.05;;;;;;;;;;5031735;28;20029;-79
2021/11/26 07:41:47;;;;;;;13.73;4.10;;;;;;;;;;5024707;28;20064;-79
2021/11/26 07:44:13;;;;;;;12.55;4.22;;;;;;;;;;5026554;28;20153;-80
2021/11/26 07:46:38;;;;;;;16.25;4.45;;;;;;;;;;5026591;28;20033;-80
2021/11/26 07:49:04;;;;;;;13.85;4.45;;;;;;;;;;5008051;28;20484;-79
2021/11/26 07:51:29;;;;;;;14.40;5.18;;;;;;;;;;5025657;28;20056;-79
2021/11/26 07:53:55;;;;;;;13.18;4.60;;;;;;;;;;5004403;28;20043;-79
2021/11/26 07:56:21;;;;;;;12.60;4.00;;;;;;;;;;5023402;28;20948;-79
2021/11/26 07:58:46;;;;;;;13.40;4.50;;;;;;;;;;5022640;28;20042;-79
2021/11/26 08:01:12;;;;;;;12.35;3.97;;;;;;;;;;5011406;28;20484;-80
2021/11/26 08:03:37;;;;;;;12.68;4.25;;;;;;;;;;5001587;28;20067;-79
2021/11/26 08:06:04;;;;;;;14.85;4.63;;;;;;;;;;5009449;28;20022;-79
2021/11/26 08:08:29;;;;;;;18.13;4.43;;;;;;;;;;5011823;28;20090;-77
2021/11/26 08:10:55;;;;;;;14.48;4.28;;;;;;;;;;5046368;28;20034;-80
2021/11/26 08:13:20;;;;;;;12.88;4.22;;;;;;;;;;5012458;28;20033;-80
2021/11/26 08:15:45;;;;;;;13.45;4.30;;;;;;;;;;5042356;28;20060;-80
2021/11/26 08:18:13;;;;;;;17.83;4.57;;;;;;;;;;5014310;28;20022;-80
2021/11/26 08:20:39;;;;;;;19.20;5.05;;;;;;;;;;5014655;28;20033;-79
2021/11/26 08:23:06;;;;;;;19.13;4.95;;;;;;;;;;5033301;28;20036;-79
2021/11/26 08:25:31;;;;;;;17.40;5.20;;;;;;;;;;5043142;28;20029;-76
2021/11/26 08:27:57;;;;;;;16.42;4.57;;;;;;;;;;5012118;28;20028;-79
2021/11/26 08:30:23;;;;;;;13.07;4.50;;;;;;;;;;5033085;28;20033;-81
2021/11/26 08:32:49;;;;;;;15.13;4.80;;;;;;;;;;5018239;28;20108;-80
2021/11/26 08:35:15;;;;;;;15.10;4.63;;;;;;;;;;5016175;28;20044;-79
2021/11/26 08:37:41;;;;;;;14.75;4.70;;;;;;;;;;5023063;28;20753;-80
2021/11/26 08:40:07;;;;;;;11.70;4.70;;;;;;;;;;5034800;28;20044;-80
2021/11/26 08:42:33;;;;;;;15.10;5.05;;;;;;;;;;5049576;28;20564;-80
2021/11/26 08:44:58;;;;;;;15.93;5.72;;;;;;;;;;5048397;28;20033;-79
2021/11/26 08:47:24;;;;;;;13.85;4.75;;;;;;;;;;5035623;28;20029;-76
2021/11/26 08:49:49;;;;;;;10.82;4.25;;;;;;;;;;5030980;28;20120;-79
2021/11/26 08:52:15;;;;;;;13.82;4.80;;;;;;;;;;5048957;28;20528;-76
2021/11/26 08:54:41;;;;;;;12.07;4.30;;;;;;;;;;5009919;28;20068;-80
2021/11/26 08:57:06;;;;;;;11.85;4.47;;;;;;;;;;5014564;28;20091;-78
2021/11/26 08:59:32;;;;;;;10.70;4.18;;;;;;;;;;5031161;28;20025;-76
2021/11/26 09:01:57;;;;;;;12.23;4.63;;;;;;;;;;5015484;28;20028;-78
2021/11/26 09:04:24;;;;;;;13.32;4.07;;;;;;;;;;5043443;28;20021;-80
2021/11/26 09:06:51;;;;;;;9.88;3.90;;;;;;;;;;5028997;28;20428;-79
2021/11/26 09:09:18;;;;;;;10.15;3.92;;;;;;;;;;5031185;28;20524;-76
2021/11/26 09:11:43;;;;;;;10.15;3.72;;;;;;;;;;5020972;28;20025;-76
2021/11/26 09:14:08;;;;;;;12.90;4.63;;;;;;;;;;5031367;28;21889;-78
2021/11/26 09:16:34;;;;;;;14.45;4.47;;;;;;;;;;5026013;28;20119;-80
2021/11/26 09:19:00;;;;;;;10.88;3.33;;;;;;;;;;5023345;28;20041;-80
2021/11/26 09:21:26;;;;;;;13.00;3.97;;;;;;;;;;5024303;28;20033;-79
2021/11/26 09:23:51;;;;;;;11.32;3.33;;;;;;;;;;5042846;28;20041;-77
2021/11/26 09:26:17;;;;;;;9.00;3.78;;;;;;;;;;5012752;28;20123;-77
2021/11/26 09:28:42;;;;;;;12.20;3.65;;;;;;;;;;5012507;28;20021;-77
2021/11/26 09:31:07;;;;;;;9.10;3.50;;;;;;;;;;5045132;28;20038;-80
2021/11/26 09:33:36;;;;;;;6.70;3.10;;;;;;;;;;5016863;28;20388;-78
2021/11/26 09:36:04;;;;;;;14.13;4.05;;;;;;;;;;5039648;28;20055;-78
2021/11/26 09:38:31;;;;;;;11.23;3.53;;;;;;;;;;5007782;28;20511;-78
2021/11/26 09:40:57;;;;;;;11.13;3.47;;;;;;;;;;5031336;28;20063;-78
2021/11/26 09:43:22;;;;;;;9.27;3.40;;;;;;;;;;5018315;28;20057;-80
2021/11/26 09:45:49;;;;;;;10.40;3.35;;;;;;;;;;5011205;28;20048;-80
2021/11/26 09:48:14;;;;;;;10.43;3.90;;;;;;;;;;5020857;28;20060;-79
2021/11/26 09:50:40;;;;;;;13.10;3.50;;;;;;;;;;5018816;28;20033;-79
2021/11/26 09:53:07;;;;;;;9.18;3.47;;;;;;;;;;5021959;28;20065;-77
2021/11/26 09:55:32;;;;;;;14.57;3.55;;;;;;;;;;5008198;28;20183;-78
2021/11/26 09:57:57;;;;;;;14.27;3.50;;;;;;;;;;5027381;28;20060;-80
2021/11/26 10:00:24;;;;;;;10.75;3.45;;;;;;;;;;5008545;28;20550;-80
2021/11/26 10:02:58;;;;;;;8.85;3.15;;;;;;;;;;5017718;28;20022;-79
2021/11/26 10:05:25;;;;;;;12.43;3.60;;;;;;;;;;5024667;28;20029;-80
2021/11/26 10:07:53;;;;;;;12.63;4.47;;;;;;;;;;5033326;28;20033;-79
2021/11/26 10:10:21;;;;;;;10.85;3.40;;;;;;;;;;4999518;28;20144;-79
2021/11/26 10:13:00;;;;;;;14.85;3.28;;;;;;;;;;4996680;28;20034;-78
2021/11/26 10:15:52;;;;;;;11.18;2.90;;;;;;;;;;4994614;28;20030;-80
2021/11/26 10:18:26;;;;;;;8.60;3.25;;;;;;;;;;4979782;28;21228;-78
2021/11/26 10:21:04;;;;;;;10.05;3.20;;;;;;;;;;4986899;28;20037;-79
2021/11/26 10:23:42;;;;;;;10.40;3.28;;;;;;;;;;5003709;28;20049;-76
2021/11/26 10:26:28;;;;;;;11.02;3.88;;;;;;;;;;5000468;28;20038;-76
2021/11/26 10:29:01;;;;;;;10.23;3.15;;;;;;;;;;4993593;28;20449;-76
2021/11/26 10:31:30;;;;;;;13.18;3.72;;;;;;;;;;4990759;28;20121;-76
2021/11/26 10:33:59;;;;;;;8.27;2.97;;;;;;;;;;4986454;28;20089;-79
2021/11/26 10:36:26;;;;;;;6.90;2.95;;;;;;;;;;4983554;28;20030;-80
2021/11/26 10:38:53;;;;;;;6.38;2.83;;;;;;;;;;4993563;28;20025;-78
2021/11/26 10:41:29;;;;;;;9.88;3.22;;;;;;;;;;4991426;28;20556;-79
2021/11/26 10:44:06;;;;;;;12.77;3.20;;;;;;;;;;4988307;28;20026;-78
2021/11/26 10:59:48;;;;;;;8.23;2.92;;;;;;;;;;4989602;28;20030;-79
2021/11/26 11:02:25;;;;;;;8.05;2.70;;;;;;;;;;5001070;28;20125;-80
2021/11/26 11:04:50;;;;;;;8.50;3.00;;;;;;;;;;4991887;28;20026;-79
2021/11/26 11:07:17;;;;;;;8.55;3.00;;;;;;;;;;4991441;28;20018;-80
2021/11/26 11:09:45;;;;;;;8.82;3.22;;;;;;;;;;4999331;28;20054;-76
2021/11/26 11:12:12;;;;;;;10.05;3.00;;;;;;;;;;5010143;28;20477;-80
2021/11/26 11:14:38;;;;;;;10.15;2.83;;;;;;;;;;5016031;28;20020;-80
2021/11/26 11:17:05;;;;;;;8.32;2.60;;;;;;;;;;5007689;28;20037;-76
2021/11/26 11:19:30;;;;;;;10.40;3.00;;;;;;;;;;5011664;28;20032;-80
2021/11/26 11:21:57;;;;;;;12.02;3.08;;;;;;;;;;5008003;28;20412;-77
2021/11/26 11:24:26;;;;;;;8.82;3.10;;;;;;;;;;5007344;28;20041;-76
2021/11/26 11:26:53;;;;;;;10.43;3.03;;;;;;;;;;5023414;28;20451;-76
2021/11/26 11:29:22;;;;;;;9.77;2.67;;;;;;;;;;5015181;28;20096;-79
2021/11/26 11:31:48;;;;;;;8.55;2.95;;;;;;;;;;5009996;28;20452;-77
2021/11/26 11:34:18;;;;;;;10.07;2.90;;;;;;;;;;5004990;28;20042;-80
2021/11/26 11:36:44;;;;;;;9.60;2.88;;;;;;;;;;5007884;28;20029;-76
2021/11/26 11:39:10;;;;;;;7.85;2.80;;;;;;;;;;5005689;28;20077;-79
2021/11/26 11:41:53;;;;;;;9.77;2.55;;;;;;;;;;5005506;28;20492;-79
2021/11/26 11:44:30;;;;;;;10.73;2.92;;;;;;;;;;5011862;28;20034;-76
2021/11/26 11:47:00;;;;;;;6.90;2.55;;;;;;;;;;5009729;28;20022;-80
2021/11/26 11:49:30;;;;;;;6.15;2.30;;;;;;;;;;5010701;28;20385;-80
2021/11/26 11:51:58;;;;;;;9.73;2.30;;;;;;;;;;5025302;28;20037;-79
2021/11/26 11:54:38;;;;;;;6.38;2.58;;;;;;;;;;5012045;28;20040;-80
2021/11/26 11:57:06;;;;;;;8.90;2.60;;;;;;;;;;5005119;28;20037;-78
2021/11/26 11:59:37;;;;;;;7.78;2.88;;;;;;;;;;5014996;28;20033;-79
2021/11/26 12:02:07;;;;;;;10.00;2.85;;;;;;;;;;5013237;28;20037;-79
2021/11/26 12:04:44;;;;;;;10.88;3.08;;;;;;;;;;5013734;28;20033;-79
2021/11/26 12:07:21;;;;;;;8.48;3.55;;;;;;;;;;5010706;28;20023;-79
2021/11/26 12:09:47;;;;;;;10.48;3.33;;;;;;;;;;5019676;28;20068;-77
2021/11/26 12:12:20;;;;;;;5.53;3.00;;;;;;;;;;5018980;28;20025;-80
2021/11/26 12:14:50;;;;;;;8.65;3.47;;;;;;;;;;5017583;28;20029;-80
2021/11/26 12:17:31;;;;;;;9.27;3.65;;;;;;;;;;5032872;28;20030;-80
2021/11/26 12:20:05;;;;;;;9.90;3.75;;;;;;;;;;5029585;28;20124;-79
2021/11/26 12:22:45;;;;;;;7.30;3.17;;;;;;;;;;5030702;28;20389;-80
2021/11/26 12:26:02;;;;;;;11.07;3.38;;;;;;;;;;5047359;28;20100;-79
2021/11/26 12:28:38;;;;;;;5.80;2.55;;;;;;;;;;5050140;28;20115;-78
2021/11/26 12:31:09;;;;;;;7.80;2.90;;;;;;;;;;5016663;28;20570;-76
2021/11/26 12:33:35;;;;;;;7.13;3.33;;;;;;;;;;5037642;28;20029;-79
2021/11/26 12:36:02;;;;;;;7.95;2.35;;;;;;;;;;5021098;28;20030;-80
2021/11/26 12:38:44;;;;;;;7.10;2.67;;;;;;;;;;5035037;28;20025;-76
2021/11/26 12:41:12;;;;;;;4.75;2.28;;;;;;;;;;5023082;28;20515;-80
2021/11/26 12:43:45;;;;;;;8.15;2.40;;;;;;;;;;5027937;28;20162;-77
2021/11/26 12:46:27;;;;;;;4.65;2.30;;;;;;;;;;5024489;28;20087;-80
2021/11/26 12:51:47;;;;;;;6.57;2.60;;;;;;;;;;5036273;28;20103;-80
2021/11/26 12:54:32;;;;;;;6.47;2.25;;;;;;;;;;5022804;28;20473;-77
2021/11/26 12:57:01;;;;;;;5.97;2.40;;;;;;;;;;5027664;28;20025;-76
2021/11/26 12:59:31;;;;;;;6.68;2.47;;;;;;;;;;5019575;28;20166;-80
2021/11/26 13:01:56;;;;;;;6.82;2.17;;;;;;;;;;5019477;28;20515;-81
2021/11/26 13:04:21;;;;;;;5.78;2.35;;;;;;;;;;5030939;28;20030;-77
2021/11/26 13:06:48;;;;;;;5.85;2.80;;;;;;;;;;5014973;28;20112;-80
2021/11/26 13:09:14;;;;;;;5.28;2.20;;;;;;;;;;5047693;28;20076;-80
2021/11/26 13:11:46;;;;;;;5.82;2.75;;;;;;;;;;5028453;28;20512;-81
2021/11/26 13:14:11;;;;;;;6.90;2.50;;;;;;;;;;5032706;28;20382;-81
2021/11/26 13:16:38;;;;;;;6.18;3.20;;;;;;;;;;5014899;28;20037;-80
2021/11/26 13:19:12;;;;;;;6.10;2.67;;;;;;;;;;5034393;28;20393;-81
2021/11/26 13:21:38;;;;;;;4.93;2.38;;;;;;;;;;5028072;28;20055;-80
2021/11/26 13:24:04;;;;;;;5.60;2.60;;;;;;;;;;5034368;28;20021;-80
2021/11/26 13:26:30;;;;;;;5.30;2.58;;;;;;;;;;5028712;28;20029;-81
2021/11/26 13:28:55;;;;;;;6.15;2.95;;;;;;;;;;5013660;28;20649;-77
2021/11/26 13:31:24;;;;;;;7.68;3.08;;;;;;;;;;5023683;28;20499;-81
2021/11/26 13:33:53;;;;;;;5.93;2.72;;;;;;;;;;5020265;28;20078;-77
2021/11/26 13:36:23;;;;;;;6.55;3.13;;;;;;;;;;5026014;28;20025;-77
2021/11/26 13:38:55;;;;;;;6.22;3.08;;;;;;;;;;5032488;28;20424;-81
2021/11/26 13:41:25;;;;;;;8.23;3.50;;;;;;;;;;5028435;28;20029;-80
2021/11/26 13:43:55;;;;;;;6.07;2.95;;;;;;;;;;5016656;28;20393;-77
2021/11/26 13:46:33;;;;;;;6.65;3.17;;;;;;;;;;5022636;28;20084;-81
2021/11/26 13:49:02;;;;;;;6.22;3.17;;;;;;;;;;5012634;28;20084;-81
2021/11/26 13:51:31;;;;;;;7.88;3.50;;;;;;;;;;5010880;28;20029;-81
2021/11/26 13:54:09;;;;;;;6.70;3.33;;;;;;;;;;5028917;28;20075;-80
2021/11/26 13:56:46;;;;;;;8.10;3.10;;;;;;;;;;5030458;28;20033;-80
2021/11/26 13:59:24;;;;;;;5.80;3.03;;;;;;;;;;5032810;28;20067;-82
2021/11/26 14:01:51;;;;;;;6.60;3.10;;;;;;;;;;5032390;28;20151;-81
2021/11/26 14:04:22;;;;;;;6.45;3.17;;;;;;;;;;5015722;28;20034;-77
2021/11/26 14:07:00;;;;;;;6.15;2.90;;;;;;;;;;5049518;28;20044;-81
2021/11/26 14:09:26;;;;;;;6.22;3.10;;;;;;;;;;5018990;28;20033;-82
2021/11/26 14:11:51;;;;;;;5.55;3.15;;;;;;;;;;5012629;28;20041;-83
2021/11/26 14:14:22;;;;;;;6.10;3.13;;;;;;;;;;5005748;28;20030;-83
2021/11/26 14:16:55;;;;;;;6.40;2.67;;;;;;;;;;5015780;28;20033;-78
2021/11/26 14:19:31;;;;;;;7.47;2.80;;;;;;;;;;5003500;28;20037;-82
2021/11/26 14:21:58;;;;;;;4.57;2.55;;;;;;;;;;5002316;28;20034;-78
2021/11/26 14:24:43;;;;;;;4.18;2.40;;;;;;;;;;5010839;28;20148;-80
2021/11/26 14:27:11;;;;;;;5.80;2.65;;;;;;;;;;5009776;28;20030;-81
2021/11/26 14:29:48;;;;;;;4.53;2.45;;;;;;;;;;5009178;28;20060;-81
2021/11/26 14:32:14;;;;;;;5.57;2.70;;;;;;;;;;5009857;28;20083;-83
2021/11/26 14:34:43;;;;;;;4.93;2.58;;;;;;;;;;5011661;28;20066;-78
2021/11/26 14:37:08;;;;;;;6.07;2.40;;;;;;;;;;5009134;28;20037;-82
2021/11/26 14:39:35;;;;;;;4.75;2.65;;;;;;;;;;5026733;28;20470;-81
2021/11/26 14:42:04;;;;;;;3.53;2.33;;;;;;;;;;5015385;28;20022;-81
2021/11/26 14:44:40;;;;;;;4.25;2.38;;;;;;;;;;5012268;28;20032;-81
2021/11/26 14:47:06;;;;;;;4.50;2.70;;;;;;;;;;5007297;28;20716;-82
2021/11/26 14:49:46;;;;;;;5.63;3.15;;;;;;;;;;5024162;28;20025;-83
2021/11/26 14:52:12;;;;;;;3.92;2.67;;;;;;;;;;5011460;28;20489;-78
2021/11/26 14:54:42;;;;;;;4.85;2.70;;;;;;;;;;5007369;28;20362;-81
2021/11/26 14:57:08;;;;;;;5.47;2.72;;;;;;;;;;5012926;28;20056;-79
2021/11/26 14:59:34;;;;;;;5.53;2.67;;;;;;;;;;5013617;28;20030;-82